Weather observations for the past three days for
Oklahoma City, Wiley Post Airport
Metric (Imperial)
Date Time (cdt) Wind (kph) Vis. (km) Weather Sky Cond. Temperature (ºC) Relative Humidity Wind Chill (°C) Heat Index (°C) Pressure Precipitation (cm)
Air Dwpt 6 hour altimeter (cm) sea level (mb) 1 hr 3 hr 6 hr
Max. Min.
07 03:53 Calm 16.09 Fair CLR 6.7 3.9 83% 76.43 1018.6
07 02:53 Calm 16.09 Fair CLR 8.3 4.4 77% 76.43 1018.7
07 01:53 Calm 16.09 Fair CLR 6.7 2.8 76% 76.43 1018.9
07 00:53 N 9 16.09 Fair CLR 10 3.3 17.8 8.9 63% 9 76.48 1019.3
06 23:53 NE 7 16.09 Fair CLR 11.7 3.3 57% 76.48 1019.1
06 22:53 NE 13 16.09 Fair CLR 11.1 3.9 61% 76.38 1017.8
06 21:53 N 11 16.09 Fair CLR 12.8 3.3 53% 76.38 1018.0
06 20:53 NE 15 16.09 Partly Cloudy SCT055 14.4 3.3 48% 76.3 1017.0
06 19:53 NE 19 16.09 Overcast OVC055 16.1 3.9 44% 76.25 1016.2
06 18:53 NE 19 16.09 Partly Cloudy SCT055 17.8 3.9 18.9 15.6 40% 76.23 1015.7
06 17:53 NE 15 16.09 A Few Clouds FEW120 18.3 3.9 39% 76.17 1015.1
06 16:53 E 22 G 31 16.09 A Few Clouds FEW049 18.3 4.4 40% 76.17 1014.9
06 15:53 NE 20 G 35 16.09 Mostly Cloudy BKN047 17.2 5 45% 76.2 1015.5
06 14:53 NE 26 G 43 16.09 Overcast OVC045 17.2 5 45% 76.23 1015.8
06 13:53 NE 19 G 31 16.09 Overcast OVC043 16.1 4.4 46% 76.25 1016.3
06 12:53 E 19 G 37 16.09 Mostly Cloudy BKN041 16.7 4.4 16.7 8.9 44% 76.3 1016.8
06 11:53 NE 26 G 41 16.09 A Few Clouds FEW035 15.6 3.9 46% 76.33 1017.0
06 10:53 E 24 G 43 16.09 A Few Clouds FEW029 13.3 4.4 55% 76.33 1017.4
06 09:53 NE 26 G 41 16.09 Mostly Cloudy BKN021 10.6 5 69% 76.3 1017.0
06 08:53 NE 24 G 41 16.09 Overcast OVC017 10 5 71% 7 76.28 1016.7
06 07:53 N 28 G 39 16.09 Mostly Cloudy BKN015 9.4 5.6 77% 6 76.25 1016.5
06 06:53 NE 22 16.09 Overcast BKN017 OVC022 8.9 5.6 10 8.9 80% 6 76.17 1015.3
06 05:53 N 17 16.09 Mostly Cloudy BKN044 8.9 5 77% 7 76.12 1014.9
06 04:53 N 17 16.09 Overcast SCT024 SCT034 OVC043 9.4 5 74% 7 76.17 1015.4
06 03:53 N 19 16.09 Overcast OVC043 9.4 3.9 69% 7 76.07 1014.0
06 02:53 N 20 G 43 16.09 Overcast OVC038 9.4 3.9 69% 7 76 1012.8
06 01:53 NE 20 16.09 Overcast OVC036 10 3.3 63% 8 75.97 1012.7
06 00:53 NE 26 16.09 Overcast OVC032 10 3.3 10 9.4 63% 7 75.97 1012.5
05 23:53 NE 26 16.09 Overcast OVC030 10 3.3 63% 7 75.95 1012.3
05 22:53 N 30 G 44 16.09 Overcast OVC023 10 5 71% 7 75.97 1012.3
05 21:53 NE 30 G 50 16.09 Overcast OVC017 9.4 6.1 80% 6 75.87 1010.8
05 20:53 N 20 G 39 16.09 Overcast OVC016 9.4 6.1 80% 7 75.87 1010.9
05 19:53 N 26 G 39 16.09 Overcast OVC017 10 6.1 77% 7 75.79 1009.9
05 18:53 N 30 G 46 16.09 Overcast OVC021 10.6 6.1 13.9 10.6 74% 75.74 1009.1
05 17:53 N 28 G 43 16.09 Overcast OVC021 11.1 6.1 72% 75.72 1008.8
05 16:53 N 33 G 44 16.09 Overcast and Breezy OVC022 12.2 6.1 67% 75.69 1008.2
05 15:53 N 35 G 52 16.09 Overcast and Breezy OVC020 12.8 6.7 67% 75.64 1007.5
05 14:53 N 30 G 50 16.09 Overcast OVC016 12.8 7.8 72% 75.62 1007.2
05 13:53 N 35 G 52 16.09 Overcast and Breezy OVC014 12.8 8.9 77% 75.59 1007.0
05 12:53 N 33 G 46 16.09 Overcast and Breezy OVC014 13.9 9.4 22.8 13.9 74% 75.54 1006.1
05 11:53 N 33 G 50 16.09 Overcast and Breezy OVC012 13.9 10 78% 75.46 1005.2
05 10:53 N 33 G 52 16.09 Overcast and Breezy OVC012 15 11.7 81% 75.34 1003.5
05 09:53 N 24 G 37 16.09 Mostly Cloudy BKN013 20.6 17.2 81% 75.21 1001.2
05 08:53 SE 6 16.09 Fair CLR 21.7 16.1 71% 75.13 1000.1
05 07:53 Calm 16.09 Fair CLR 20.6 16.7 78% 75.11 999.9
05 06:53 Vrbl 9 16.09 Fair CLR 20.6 16.1 23.3 20.6 76% 75.03 998.8
05 05:53 S 20 G 37 16.09 Fair CLR 21.7 16.1 71% 74.96 997.7
05 04:53 S 22 G 41 16.09 Fair CLR 21.7 16.7 73% 74.93 997.2
05 03:53 S 28 16.09 Fair CLR 22.2 16.7 71% 74.96 997.5
05 02:53 S 31 G 46 16.09 Fair CLR 23.3 16.7 67% 74.98 997.8
05 01:53 S 30 G 46 16.09 Fair CLR 22.2 16.7 71% 75.03 998.6
05 00:53 S 31 G 50 16.09 Fair CLR 22.2 16.7 26.7 22.2 71% 75.06 999.0
04 23:53 S 35 G 50 16.09 Fair and Breezy CLR 22.8 16.7 69% 75.08 999.5
04 22:53 S 31 G 48 16.09 Fair CLR 22.8 16.7 69% 75.11 1000.0
04 21:53 S 33 G 56 16.09 Fair and Breezy CLR 23.3 16.7 67% 75.08 999.7
04 20:53 S 33 G 52 16.09 Fair and Breezy CLR 24.4 16.1 60% 26 75.08 999.4
04 19:53 S 43 G 56 16.09 Fair and Windy CLR 26.1 16.1 54% 27 75.08 999.7
04 18:53 S 41 G 56 16.09 Fair and Breezy CLR 26.7 16.1 28.9 26.1 52% 27 75.11 1000.1
04 17:53 S 35 G 54 16.09 Fair and Breezy CLR 27.8 15.6 47% 28 75.16 1000.5
04 16:53 S 33 G 52 16.09 Fair and Breezy CLR 27.8 14.4 44% 28 75.18 1001.0
04 15:53 S 33 G 57 16.09 Fair and Breezy CLR 28.3 14.4 43% 28 75.26 1002.0
04 14:53 S 41 G 57 16.09 Fair and Breezy CLR 27.8 13.3 41% 28 75.34 1002.9
04 13:53 S 35 G 56 16.09 Fair and Breezy CLR 27.2 12.8 41% 27 75.39 1003.6
04 12:53 S 39 G 56 16.09 Fair and Breezy CLR 26.1 12.2 26.1 16.7 42% 26 75.46 1004.6
04 11:53 SW 41 G 56 16.09 Fair and Breezy CLR 25 11.1 42% 26 75.51 1005.2
04 10:53 S 43 G 59 16.09 Fair and Windy CLR 23.3 10.6 45% 75.54 1005.6
04 09:53 S 37 G 50 16.09 Fair and Breezy CLR 21.7 10 47% 75.57 1006.2
04 08:53 S 37 G 48 16.09 Fair and Breezy CLR 19.4 9.4 53% 75.62 1006.8
04 07:53 S 28 G 41 16.09 Fair CLR 17.8 8.9 56% 75.62 1007.1
04 06:53 S 26 16.09 Fair CLR 16.7 8.3 20 16.7 58% 75.62 1007.0
04 05:53 S 24 G 41 16.09 Fair CLR 17.2 7.8 54% 75.67 1007.4
04 04:53 S 28 16.09 Fair CLR 17.8 7.2 50% 75.67 1007.5
Date Time (cdt) Wind (kph) Vis. (km) Weather Sky Cond. Air Dwpt Max. Min. Relative Humidity Wind Chill (°C) Heat Index (°C) altimeter (cm) sea level (mb) 1 hr 3 hr 6 hr
6 hour
Temperature (ºC) Pressure Precipitation (cm)